Time;durP1;ratioP1;P1;durP2;ratioP2;P2;SDS_P1;SDS_P2;PMS_P1;PMS_P2;Temp;Humidity;BMP_temperature;BMP_pressure;BME280_temperature;BME280_humidity;BME280_pressure;Samples;Min_cycle;Max_cycle;Signal;HPM_P1;HPM_P2
2023/10/29 07:01:50;;;;;;;0.67;0.50;;;13.30;99.90;16.50;98893.00;;;;6129195;22;4137993;-72
2023/10/29 07:04:30;;;;;;;1.33;1.13;;;13.40;99.90;15.70;98883.00;;;;6307189;22;20149;-73
2023/10/29 07:07:04;;;;;;;0.70;0.67;;;13.30;99.90;15.30;98833.00;;;;6309730;22;20624;-73
2023/10/29 07:09:46;;;;;;;0.40;0.40;;;13.20;99.90;15.50;98843.00;;;;6333811;22;20617;-72
2023/10/29 07:12:35;;;;;;;0.40;0.40;;;13.20;99.90;15.40;98913.00;;;;6308830;22;20467;-72
2023/10/29 07:15:25;;;;;;;0.60;0.60;;;13.20;99.90;15.80;98879.00;;;;6286499;22;20592;-72
2023/10/29 07:18:20;;;;;;;0.30;0.30;;;13.30;99.90;15.70;98882.00;;;;6298689;22;20160;-72
2023/10/29 07:21:05;;;;;;;5.50;0.80;;;13.40;99.90;15.10;98931.00;;;;6286214;22;20148;-72
2023/10/29 07:23:47;;;;;;;1.33;0.63;;;13.20;99.90;15.50;98940.00;;;;6307624;22;20171;-72
2023/10/29 07:26:27;;;;;;;0.40;0.40;;;13.30;99.90;15.30;98938.00;;;;6332406;22;20537;-72
2023/10/29 07:29:23;;;;;;;0.27;0.27;;;13.30;99.90;16.00;98936.00;;;;6307164;22;20141;-72
2023/10/29 07:32:26;;;;;;;0.77;0.73;;;13.50;99.90;15.10;98953.00;;;;6307288;22;20247;-72
2023/10/29 07:35:21;;;;;;;0.80;0.80;;;13.30;99.90;15.80;98942.00;;;;6300773;22;20159;-71
2023/10/29 07:38:13;;;;;;;2.83;0.90;;;13.50;99.90;15.50;98934.00;;;;6307602;22;20648;-72
2023/10/29 07:40:56;;;;;;;0.20;0.20;;;13.50;99.90;15.60;98945.00;;;;6307406;22;20144;-72
2023/10/29 07:43:48;;;;;;;0.50;0.40;;;13.50;99.90;16.50;98948.00;;;;6308166;22;20172;-72
2023/10/29 07:46:37;;;;;;;1.13;1.00;;;13.70;99.90;15.70;98976.00;;;;6292054;22;20245;-72
2023/10/29 07:49:32;;;;;;;1.20;1.10;;;13.80;99.90;16.10;98975.00;;;;6247759;22;20165;-72
2023/10/29 07:52:23;;;;;;;1.20;0.53;;;13.80;99.90;16.50;98933.00;;;;6284375;22;20214;-72
2023/10/29 07:55:21;;;;;;;0.83;0.53;;;13.90;99.90;16.10;98993.00;;;;6189696;23;20167;-71
2023/10/29 07:57:59;;;;;;;1.60;0.40;;;13.80;99.90;16.40;99011.00;;;;6307117;22;20165;-71
2023/10/29 08:01:08;;;;;;;0.40;0.40;;;14.00;99.90;16.50;99013.00;;;;6300774;22;20162;-72
2023/10/29 08:04:00;;;;;;;0.20;0.20;;;14.10;99.90;17.00;99010.00;;;;6254087;22;20170;-72
2023/10/29 08:06:29;;;;;;;2.80;0.53;;;14.10;99.90;16.30;99023.00;;;;6153942;23;20165;-72
2023/10/29 08:09:14;;;;;;;0.20;0.20;;;14.10;99.90;17.20;99031.00;;;;6129168;23;20164;-72
2023/10/29 08:12:00;;;;;;;1.63;0.70;;;14.20;99.90;17.00;99024.00;;;;6240647;22;20190;-72
2023/10/29 08:14:49;;;;;;;0.20;0.20;;;14.50;99.90;17.80;98985.00;;;;6276076;22;20147;-71
2023/10/29 08:17:41;;;;;;;0.47;0.47;;;14.60;99.90;16.70;99031.00;;;;6275838;22;20488;-72
2023/10/29 08:20:11;;;;;;;0.20;0.20;;;14.50;99.90;18.30;99064.00;;;;6276233;22;20136;-72
2023/10/29 08:22:48;;;;;;;2.53;0.77;;;14.80;99.90;17.90;99060.00;;;;6274910;22;20782;-72
2023/10/29 08:25:22;;;;;;;0.87;0.53;;;14.80;99.90;16.40;99043.00;;;;6276370;22;20157;-71
2023/10/29 08:27:48;;;;;;;0.60;0.60;;;14.40;99.90;16.70;99003.00;;;;6275847;22;20280;-72
2023/10/29 08:30:42;;;;;;;0.20;0.20;;;14.30;99.90;17.40;99055.00;;;;6276990;22;20204;-71
2023/10/29 08:33:57;;;;;;;2.03;0.50;;;14.40;99.90;17.30;99071.00;;;;6153509;23;20251;-71
2023/10/29 08:36:53;;;;;;;0.20;0.20;;;14.40;99.90;17.40;99055.00;;;;6152733;23;20165;-72
2023/10/29 08:40:02;;;;;;;0.20;0.20;;;14.50;99.90;16.40;99105.00;;;;6129977;23;20150;-73
2023/10/29 08:43:24;;;;;;;0.20;0.20;;;14.30;99.90;17.20;99111.00;;;;6127976;23;20603;-73
2023/10/29 08:45:54;;;;;;;3.13;1.23;;;14.50;99.90;17.20;99100.00;;;;6128928;23;20161;-73
2023/10/29 08:51:15;;;;;;;2.47;1.23;;;14.40;99.90;17.50;99095.00;;;;6217453;22;20171;-73
2023/10/29 08:53:45;;;;;;;2.23;0.77;;;14.50;99.90;16.10;99081.00;;;;6277498;22;20226;-73
2023/10/29 08:57:03;;;;;;;0.20;0.20;;;14.10;99.90;16.00;99089.00;;;;6275630;22;20597;-73
2023/10/29 09:00:05;;;;;;;1.60;1.27;;;14.00;99.90;16.20;99081.00;;;;6275676;22;20214;-73
2023/10/29 09:02:34;;;;;;;0.20;0.20;;;13.90;99.90;17.10;99088.00;;;;6274967;22;20742;-73
2023/10/29 09:05:19;;;;;;;0.83;0.60;;;14.20;99.90;16.30;99103.00;;;;6275473;22;20563;-73
2023/10/29 09:07:45;;;;;;;0.20;0.20;;;14.10;99.90;16.80;99107.00;;;;6276960;22;20146;-73
2023/10/29 09:10:33;;;;;;;1.30;1.03;;;14.10;99.90;17.00;99097.00;;;;6275739;22;20147;-73
2023/10/29 09:13:00;;;;;;;3.70;0.20;;;14.20;99.90;17.10;99051.00;;;;6250000;22;20242;-73
2023/10/29 09:15:32;;;;;;;1.27;1.13;;;14.20;99.90;17.40;99088.00;;;;6249773;22;20579;-73
2023/10/29 09:18:20;;;;;;;0.20;0.20;;;14.50;99.90;17.50;99095.00;;;;6274867;22;20197;-73
2023/10/29 09:20:52;;;;;;;1.13;0.70;;;14.60;99.90;17.90;99063.00;;;;6250031;22;20170;-73
2023/10/29 09:23:38;;;;;;;0.73;0.37;;;14.90;99.90;17.50;99082.00;;;;6275139;22;20192;-73
2023/10/29 09:26:41;;;;;;;0.30;0.30;;;14.80;99.90;17.00;99070.00;;;;6275044;22;20471;-73
2023/10/29 09:29:17;;;;;;;0.20;0.20;;;14.60;99.90;17.40;99072.00;;;;6275418;22;20141;-73
2023/10/29 09:32:31;;;;;;;0.30;0.30;;;14.70;99.90;16.40;99068.00;;;;6274870;22;20236;-73
2023/10/29 09:35:02;;;;;;;4.30;0.70;;;14.40;99.90;16.40;99068.00;;;;6275148;22;20581;-73
2023/10/29 09:37:34;;;;;;;5.23;0.87;;;14.40;99.90;16.70;99071.00;;;;6275160;22;20465;-73
2023/10/29 09:40:35;;;;;;;0.43;0.30;;;14.30;99.90;17.00;99075.00;;;;6276620;22;20133;-73
2023/10/29 09:43:13;;;;;;;0.20;0.20;;;14.30;99.90;17.30;99064.00;;;;6248792;22;20181;-73
2023/10/29 09:45:50;;;;;;;0.10;0.10;;;14.50;99.90;18.00;99069.00;;;;6249734;22;20162;-73
2023/10/29 09:48:16;;;;;;;0.37;0.20;;;14.80;99.90;17.40;99049.00;;;;6275473;22;20166;-73
2023/10/29 09:50:43;;;;;;;8.73;1.03;;;14.70;99.90;17.20;99039.00;;;;6275520;22;20212;-72
2023/10/29 09:53:53;;;;;;;0.17;0.17;;;14.60;99.90;17.70;99047.00;;;;6276981;22;20149;-72
2023/10/29 09:56:25;;;;;;;7.90;4.23;;;14.70;99.90;17.40;99062.00;;;;6249831;22;20407;-72
2023/10/29 09:58:51;;;;;;;0.20;0.20;;;14.70;99.90;17.70;99086.00;;;;6274913;22;20144;-72
2023/10/29 10:01:45;;;;;;;3.10;0.60;;;14.80;99.90;16.70;99057.00;;;;6275052;22;20177;-72
2023/10/29 10:04:11;;;;;;;0.73;0.30;;;14.60;99.90;17.60;99129.00;;;;6274996;22;20146;-72
2023/10/29 10:06:42;;;;;;;0.50;0.40;;;14.70;99.90;17.40;99091.00;;;;6275234;22;20160;-73
2023/10/29 10:09:15;;;;;;;0.47;0.47;;;14.60;99.90;17.70;99135.00;;;;6275008;22;20147;-72
2023/10/29 10:12:10;;;;;;;1.27;1.17;;;14.80;99.90;17.30;99127.00;;;;6275240;22;20179;-74
2023/10/29 10:14:39;;;;;;;0.43;0.43;;;14.70;99.90;17.40;99131.00;;;;6273985;22;20601;-74
2023/10/29 10:17:37;;;;;;;0.67;0.67;;;14.70;99.90;17.90;99159.00;;;;6300968;22;20303;-76
2023/10/29 10:20:51;;;;;;;1.30;0.80;;;14.70;99.90;17.10;99178.00;;;;6261688;22;20163;-79
2023/10/29 10:34:11;;;;;;;2.13;1.30;;;13.90;99.90;16.40;99076.00;;;;5125888;27;20566;-68
2023/10/29 10:37:02;;;;;;;0.57;0.57;;;14.00;99.90;16.90;99070.00;;;;5097089;28;20193;-79
2023/10/29 10:39:55;;;;;;;0.30;0.30;;;14.30;99.90;17.00;99075.00;;;;5091932;28;20266;-80
2023/10/29 10:42:25;;;;;;;1.93;0.33;;;14.30;99.90;17.50;99088.00;;;;5084649;28;20271;-80
2023/10/29 10:45:06;;;;;;;0.67;0.50;;;14.50;99.90;16.90;99100.00;;;;5106285;28;20650;-80
2023/10/29 10:47:46;;;;;;;1.20;1.10;;;14.40;99.90;16.40;99106.00;;;;5076654;28;20189;-80
2023/10/29 10:50:38;;;;;;;0.50;0.50;;;14.30;99.90;17.10;99087.00;;;;5085657;28;20223;-79
2023/10/29 10:53:18;;;;;;;0.30;0.30;;;14.30;99.90;17.00;99082.00;;;;5076337;28;20276;-82
2023/10/29 10:56:13;;;;;;;0.67;0.63;;;14.40;99.90;16.40;99055.00;;;;5075984;28;20198;-78
2023/10/29 10:59:13;;;;;;;0.53;0.53;;;14.30;99.90;17.10;99057.00;;;;5078645;28;20219;-78
2023/10/29 11:02:10;;;;;;;0.20;0.20;;;14.40;99.90;17.00;99022.00;;;;5077033;28;20220;-78
2023/10/29 11:05:18;;;;;;;0.20;0.20;;;14.30;99.90;17.80;99017.00;;;;5070434;28;20329;-79
2023/10/29 11:08:24;;;;;;;0.20;0.20;;;14.60;99.90;17.50;99010.00;;;;5083443;28;20185;-79
2023/10/29 11:11:19;;;;;;;0.20;0.20;;;14.70;99.90;18.00;99010.00;;;;5103559;28;20670;-79
2023/10/29 11:14:23;;;;;;;0.50;0.50;;;14.80;99.90;18.20;99007.00;;;;5091707;28;20194;-76
2023/10/29 11:17:53;;;;;;;1.10;1.10;;;15.10;99.90;17.80;99004.00;;;;5064707;28;20556;-77
2023/10/29 11:20:55;;;;;;;0.20;0.20;;;15.20;99.90;18.30;99022.00;;;;5091214;28;20201;-76
2023/10/29 11:23:56;;;;;;;11.33;2.40;;;15.30;99.90;19.00;99036.00;;;;5090678;28;20558;-77
2023/10/29 11:27:21;;;;;;;0.63;0.40;;;15.70;99.90;18.00;99036.00;;;;5072503;28;20229;-76
2023/10/29 11:30:23;;;;;;;0.20;0.20;;;15.40;99.90;18.20;98991.00;;;;5091660;28;20178;-77
2023/10/29 11:33:47;;;;;;;1.07;0.50;;;15.30;99.90;17.80;99024.00;;;;5084817;28;20313;-77
2023/10/29 11:37:02;;;;;;;0.30;0.30;;;15.30;99.90;17.90;99033.00;;;;5072576;28;20554;-77
2023/10/29 11:40:34;;;;;;;1.60;0.47;;;15.10;99.90;18.00;99019.00;;;;5080736;28;20202;-76
2023/10/29 11:43:34;;;;;;;0.47;0.30;;;15.10;99.90;17.80;99034.00;;;;5042281;28;20739;-77
2023/10/29 11:46:05;;;;;;;0.47;0.40;;;15.20;99.90;17.80;98988.00;;;;5005464;28;20192;-79
2023/10/29 11:49:07;;;;;;;1.27;0.33;;;15.10;99.90;18.10;98927.00;;;;5008011;28;20224;-76
2023/10/29 11:52:30;;;;;;;0.93;0.47;;;15.20;99.90;17.70;99000.00;;;;4998158;28;20618;-77
2023/10/29 11:55:51;;;;;;;0.50;0.33;;;15.10;99.90;17.70;99011.00;;;;5016513;28;20287;-78
2023/10/29 11:59:18;;;;;;;2.60;0.80;;;15.00;99.90;17.40;99034.00;;;;5015351;28;20231;-76
2023/10/29 12:02:25;;;;;;;0.60;0.47;;;14.90;99.90;17.80;99013.00;;;;5068888;28;20329;-76
2023/10/29 12:05:09;;;;;;;1.00;0.90;;;14.90;99.90;17.00;98994.00;;;;5086125;28;20192;-76
2023/10/29 12:08:00;;;;;;;0.90;0.67;;;14.70;99.90;16.50;98971.00;;;;5073986;28;20194;-76
2023/10/29 12:10:28;;;;;;;0.50;0.50;;;14.30;99.90;16.60;98974.00;;;;5060904;28;20184;-75
2023/10/29 12:13:18;;;;;;;3.20;1.30;;;14.20;99.90;16.40;98970.00;;;;5058469;28;20713;-77
2023/10/29 12:16:24;;;;;;;0.50;0.50;;;14.10;99.90;16.60;98954.00;;;;5088377;28;20685;-77
2023/10/29 12:18:53;;;;;;;0.50;0.50;;;14.00;99.90;17.00;98950.00;;;;5066396;28;20191;-76
2023/10/29 12:21:28;;;;;;;1.10;1.10;;;14.00;99.90;16.60;98952.00;;;;5072364;28;20313;-79
2023/10/29 12:24:25;;;;;;;0.50;0.50;;;14.00;99.90;16.70;98955.00;;;;5073703;28;20203;-79
2023/10/29 12:27:25;;;;;;;0.43;0.43;;;14.00;99.90;16.90;98951.00;;;;5063422;28;20699;-80
2023/10/29 12:30:00;;;;;;;0.60;0.50;;;14.10;99.90;16.70;98957.00;;;;5042915;28;20253;-74
2023/10/29 12:33:31;;;;;;;0.57;0.57;;;14.10;99.90;16.00;98958.00;;;;5076229;28;20219;-74
2023/10/29 12:36:03;;;;;;;3.90;0.70;;;13.90;99.90;15.90;98945.00;;;;5076929;28;20189;-74
2023/10/29 12:38:38;;;;;;;0.60;0.60;;;13.70;99.90;15.60;98972.00;;;;5073970;28;20186;-75
2023/10/29 12:41:13;;;;;;;21.70;2.23;;;13.50;99.90;15.70;98969.00;;;;5077486;28;20184;-66
2023/10/29 12:43:51;;;;;;;1.40;1.40;;;13.50;99.90;15.60;98975.00;;;;5075695;28;20184;-75
2023/10/29 12:46:21;;;;;;;1.10;1.10;;;13.30;99.90;15.50;98957.00;;;;5067142;28;20316;-74
2023/10/29 12:49:21;;;;;;;6.27;1.70;;;13.20;99.90;15.10;98938.00;;;;5073431;28;20543;-74
2023/10/29 12:52:12;;;;;;;1.00;1.00;;;13.00;99.90;15.40;98901.00;;;;5053889;28;20216;-74
2023/10/29 12:55:07;;;;;;;1.10;1.10;;;13.00;99.90;15.60;98873.00;;;;5083995;28;20654;-75
2023/10/29 12:57:45;;;;;;;1.10;1.10;;;13.00;99.90;16.00;98833.00;;;;5055723;28;20664;-75
2023/10/29 13:00:26;;;;;;;1.10;1.10;;;13.10;99.90;16.10;98841.00;;;;5056064;28;20223;-75
2023/10/29 13:03:07;;;;;;;1.10;1.10;;;13.20;99.90;16.00;98876.00;;;;5074931;28;20203;-75
2023/10/29 13:05:58;;;;;;;1.00;1.00;;;13.20;99.90;16.10;98871.00;;;;5076029;28;20658;-75
2023/10/29 13:08:28;;;;;;;1.00;1.00;;;13.40;99.90;16.30;98877.00;;;;5063754;28;20181;-76
2023/10/29 13:11:03;;;;;;;1.00;1.00;;;13.60;99.90;16.30;98861.00;;;;5058055;28;20710;-75
2023/10/29 13:14:18;;;;;;;1.20;1.20;;;13.90;99.90;16.80;98873.00;;;;5072892;28;20185;-75
2023/10/29 13:17:19;;;;;;;1.00;1.00;;;14.10;99.90;16.80;98885.00;;;;5062767;28;20240;-76
2023/10/29 13:20:30;;;;;;;1.07;1.07;;;14.10;99.90;16.50;98888.00;;;;5085798;28;20196;-75
2023/10/29 13:23:05;;;;;;;2.30;2.20;;;14.10;99.90;16.70;98891.00;;;;5056509;28;20251;-76
2023/10/29 13:25:57;;;;;;;0.90;0.90;;;14.10;99.90;16.30;98831.00;;;;5075973;28;20183;-75
2023/10/29 13:29:06;;;;;;;1.17;1.17;;;14.00;99.90;16.30;98872.00;;;;5057742;28;20182;-75
2023/10/29 13:32:25;;;;;;;2.33;1.43;;;14.00;99.90;16.40;98898.00;;;;5073029;28;20209;-75
2023/10/29 13:35:33;;;;;;;0.90;0.90;;;13.90;99.90;16.30;98875.00;;;;5072572;28;20273;-75
2023/10/29 13:42:34;;;;;;;1.27;1.27;;;13.90;99.90;17.20;98846.00;;;;5060227;28;20209;-75
2023/10/29 13:46:05;;;;;;;1.10;1.10;;;14.20;99.90;16.70;98883.00;;;;5061366;28;20270;-75
2023/10/29 13:49:23;;;;;;;1.00;1.00;;;14.40;99.90;16.80;98880.00;;;;5068447;28;20185;-75
2023/10/29 13:52:37;;;;;;;1.17;1.17;;;14.20;99.90;16.30;98869.00;;;;5064718;28;20285;-75
2023/10/29 13:55:37;;;;;;;0.93;0.93;;;14.00;99.90;16.00;98862.00;;;;5076038;28;20178;-75
2023/10/29 13:58:50;;;;;;;0.90;0.90;;;13.70;99.90;16.50;98874.00;;;;5064417;28;20190;-75
2023/10/29 14:01:47;;;;;;;0.90;0.90;;;13.80;99.90;16.70;98869.00;;;;5060140;28;20220;-75
2023/10/29 14:04:59;;;;;;;1.30;1.20;;;14.00;99.90;16.40;98871.00;;;;5058990;28;20180;-76
2023/10/29 14:07:49;;;;;;;1.47;1.37;;;14.10;99.90;16.20;98818.00;;;;5067858;28;20186;-76
2023/10/29 14:10:56;;;;;;;1.20;1.10;;;14.00;99.90;16.50;98865.00;;;;5056058;28;20237;-75
2023/10/29 14:13:31;;;;;;;1.10;1.10;;;14.00;99.90;16.70;98879.00;;;;5082538;28;20210;-76
2023/10/29 14:16:14;;;;;;;1.50;1.40;;;14.10;99.90;16.20;98820.00;;;;5074978;28;20217;-76
2023/10/29 14:18:58;;;;;;;1.40;1.40;;;14.10;99.90;16.40;98859.00;;;;5075220;28;20206;-75
2023/10/29 14:21:24;;;;;;;1.00;1.00;;;14.10;99.90;16.90;98855.00;;;;5068637;28;20176;-76
2023/10/29 14:24:07;;;;;;;1.00;1.00;;;14.30;99.90;17.30;98852.00;;;;5075097;28;20550;-75
2023/10/29 14:26:34;;;;;;;1.27;1.27;;;14.50;99.90;17.00;98857.00;;;;5073286;28;20586;-75
2023/10/29 14:29:00;;;;;;;1.00;1.00;;;14.50;99.90;16.90;98841.00;;;;5057740;28;20189;-75
2023/10/29 14:31:26;;;;;;;0.93;0.93;;;14.50;99.90;17.40;98850.00;;;;5056406;28;20590;-76
2023/10/29 14:34:13;;;;;;;0.90;0.90;;;14.70;99.90;16.80;98815.00;;;;5087119;28;20178;-75
2023/10/29 14:36:48;;;;;;;0.80;0.80;;;14.50;99.90;17.30;98851.00;;;;5073756;28;20192;-75
2023/10/29 14:39:32;;;;;;;1.00;1.00;;;14.70;99.90;17.30;98849.00;;;;5071727;28;20185;-75
2023/10/29 14:42:18;;;;;;;1.50;1.40;;;14.70;99.90;17.40;98844.00;;;;5071724;28;20588;-76
2023/10/29 14:44:53;;;;;;;1.67;1.57;;;14.90;99.90;17.70;98834.00;;;;5070792;28;20197;-75
2023/10/29 14:47:36;;;;;;;0.80;0.80;;;15.00;99.90;17.20;98830.00;;;;5071278;28;20240;-75
2023/10/29 14:50:10;;;;;;;1.00;1.00;;;14.90;99.90;17.80;98829.00;;;;5074239;28;20202;-75
2023/10/29 14:53:04;;;;;;;1.30;1.30;;;14.90;99.90;17.60;98797.00;;;;5070625;28;20271;-75
2023/10/29 14:55:46;;;;;;;1.00;1.00;;;15.00;99.90;18.10;98859.00;;;;5067332;28;20190;-75
2023/10/29 14:58:12;;;;;;;1.13;1.13;;;15.20;99.90;17.40;98848.00;;;;5072941;28;20186;-75
2023/10/29 15:00:49;;;;;;;0.80;0.80;;;15.10;99.90;17.60;98854.00;;;;5070899;28;20196;-75
2023/10/29 15:03:23;;;;;;;1.17;1.17;;;15.10;99.90;18.50;98861.00;;;;5054797;28;20208;-75
2023/10/29 15:05:50;;;;;;;0.80;0.80;;;15.40;99.90;18.10;98873.00;;;;5057658;28;20237;-75
2023/10/29 15:08:15;;;;;;;0.80;0.80;;;15.30;99.90;18.20;98871.00;;;;5069677;28;20201;-75
2023/10/29 15:10:41;;;;;;;0.80;0.80;;;15.40;99.90;17.90;98860.00;;;;5072313;28;20186;-75
2023/10/29 15:14:05;;;;;;;0.70;0.70;;;15.30;99.90;17.60;98843.00;;;;5077061;28;20209;-75
2023/10/29 15:17:11;;;;;;;0.77;0.77;;;15.20;99.90;17.70;98867.00;;;;5065116;28;20631;-74
2023/10/29 15:20:05;;;;;;;0.60;0.60;;;15.20;99.90;17.90;98858.00;;;;5050422;28;20197;-75
2023/10/29 15:22:32;;;;;;;0.70;0.70;;;15.30;99.90;17.90;98868.00;;;;5077531;28;20274;-75
2023/10/29 15:25:14;;;;;;;0.60;0.60;;;15.30;99.90;18.40;98842.00;;;;5057705;28;20187;-74
2023/10/29 15:27:43;;;;;;;0.50;0.50;;;15.40;99.90;17.90;98877.00;;;;5075813;28;20204;-75
2023/10/29 15:30:12;;;;;;;0.60;0.60;;;15.40;99.90;18.10;98866.00;;;;5067085;28;20204;-76
2023/10/29 15:32:46;;;;;;;0.50;0.50;;;15.40;99.90;17.80;98892.00;;;;5075008;28;20220;-75
2023/10/29 15:35:12;;;;;;;0.50;0.50;;;15.30;99.90;17.70;98893.00;;;;5074756;28;20274;-75
2023/10/29 15:37:40;;;;;;;0.40;0.40;;;15.30;99.90;17.60;98890.00;;;;5068507;28;20182;-75
2023/10/29 15:40:18;;;;;;;0.60;0.60;;;15.20;99.90;18.40;98857.00;;;;5077654;28;20187;-75
2023/10/29 15:42:47;;;;;;;1.37;0.80;;;15.40;99.90;17.70;98906.00;;;;5063565;28;20200;-75
2023/10/29 15:45:24;;;;;;;0.40;0.40;;;15.30;99.90;17.80;98918.00;;;;5068613;28;20641;-75
2023/10/29 15:47:58;;;;;;;0.70;0.70;;;15.40;99.90;18.10;98891.00;;;;5058193;28;20184;-75
2023/10/29 15:50:48;;;;;;;0.87;0.87;;;15.40;99.90;18.00;98941.00;;;;5071163;28;20211;-75
2023/10/29 15:53:53;;;;;;;0.83;0.83;;;15.50;99.90;18.80;98943.00;;;;5083220;28;20248;-75
2023/10/29 15:56:32;;;;;;;0.40;0.40;;;15.60;99.90;18.80;98905.00;;;;5074526;28;20644;-75
2023/10/29 15:59:41;;;;;;;0.73;0.70;;;15.80;99.90;18.30;98929.00;;;;5073746;28;20651;-75
2023/10/29 16:03:03;;;;;;;0.30;0.30;;;15.80;99.90;18.30;98965.00;;;;5072326;28;20191;-75
2023/10/29 16:05:47;;;;;;;0.90;0.60;;;15.60;99.90;18.10;98978.00;;;;5077098;28;20199;-74
2023/10/29 16:08:14;;;;;;;0.30;0.30;;;15.50;99.90;18.10;98984.00;;;;5076873;28;20218;-74
2023/10/29 16:11:26;;;;;;;4.83;0.73;;;15.50;99.90;18.30;99009.00;;;;5058407;28;20188;-74
2023/10/29 16:18:06;;;;;;;0.27;0.27;;;15.30;99.90;17.60;99002.00;;;;5063712;28;20219;-74
2023/10/29 16:21:27;;;;;;;1.60;0.57;;;15.50;99.90;17.60;99010.00;;;;5067659;28;20187;-74
2023/10/29 16:24:46;;;;;;;0.93;0.53;;;15.20;99.90;17.50;99007.00;;;;5085033;28;20291;-75
2023/10/29 16:28:07;;;;;;;0.20;0.20;;;15.20;99.90;18.30;98987.00;;;;5067981;28;20177;-74
2023/10/29 16:30:59;;;;;;;1.30;0.40;;;15.40;99.90;18.10;99018.00;;;;5059199;28;20280;-75
2023/10/29 16:33:34;;;;;;;0.20;0.20;;;15.50;99.90;18.60;99054.00;;;;5052757;28;20317;-75
2023/10/29 16:36:38;;;;;;;0.20;0.20;;;15.50;99.90;19.20;99071.00;;;;5074823;28;20283;-75
2023/10/29 16:39:29;;;;;;;0.33;0.33;;;15.60;99.90;17.70;99077.00;;;;5064700;28;20201;-75
2023/10/29 16:42:01;;;;;;;0.20;0.20;;;15.40;99.90;18.00;99059.00;;;;5071579;28;20334;-75
2023/10/29 16:45:01;;;;;;;0.20;0.20;;;15.40;99.90;18.60;99095.00;;;;5048924;28;20205;-75
2023/10/29 16:48:02;;;;;;;0.20;0.20;;;15.60;99.90;18.90;99080.00;;;;5057422;28;20524;-75
2023/10/29 16:51:05;;;;;;;0.20;0.20;;;15.50;99.90;19.00;99099.00;;;;5056021;28;20188;-75
2023/10/29 16:53:38;;;;;;;0.20;0.20;;;15.50;99.90;19.30;99109.00;;;;5071808;28;20229;-75
2023/10/29 16:56:26;;;;;;;0.30;0.30;;;15.70;99.90;18.80;99147.00;;;;5073665;28;20595;-74
2023/10/29 16:58:59;;;;;;;0.50;0.30;;;15.80;99.90;18.60;99133.00;;;;5068299;28;20648;-74
2023/10/29 17:02:02;;;;;;;0.20;0.20;;;15.60;99.90;18.10;99193.00;;;;5076072;28;20185;-74
2023/10/29 17:04:31;;;;;;;1.03;0.53;;;15.40;99.90;16.40;99131.00;;;;5058781;28;20258;-74
2023/10/29 17:07:05;;;;;;;1.03;1.03;;;14.90;99.90;16.40;99148.00;;;;5072198;28;20188;-73
2023/10/29 17:09:31;;;;;;;0.20;0.20;;;14.80;99.90;16.40;99156.00;;;;5072721;28;20192;-73
2023/10/29 17:11:59;;;;;;;0.17;0.17;;;14.70;99.90;16.10;99147.00;;;;5062758;28;20289;-74
2023/10/29 17:14:26;;;;;;;0.30;0.30;;;14.50;99.90;16.70;99165.00;;;;5059036;28;20237;-73
2023/10/29 17:17:00;;;;;;;1.60;0.40;;;14.50;99.90;15.90;99155.00;;;;5072754;28;20640;-73
2023/10/29 17:19:26;;;;;;;0.27;0.27;;;14.30;99.90;15.70;99170.00;;;;5075170;28;20265;-73
2023/10/29 17:22:10;;;;;;;0.60;0.60;;;14.20;99.90;15.20;99126.00;;;;5072946;28;20280;-72
2023/10/29 17:24:41;;;;;;;0.83;0.50;;;14.10;99.90;15.50;99140.00;;;;5087837;28;20193;-72
2023/10/29 17:27:10;;;;;;;0.30;0.30;;;14.00;99.90;17.80;99167.00;;;;5074414;28;20212;-73
2023/10/29 17:29:37;;;;;;;0.20;0.20;;;14.40;99.90;16.70;99167.00;;;;5073689;28;20654;-73
2023/10/29 17:32:05;;;;;;;0.10;0.10;;;14.30;99.90;17.10;99221.00;;;;5071802;28;20310;-73
2023/10/29 17:34:34;;;;;;;0.70;0.70;;;14.20;99.90;15.90;99201.00;;;;5066162;28;20222;-73
2023/10/29 17:37:02;;;;;;;0.10;0.10;;;13.90;99.90;16.90;99178.00;;;;5070869;28;20188;-73
2023/10/29 17:39:27;;;;;;;0.20;0.20;;;14.00;99.90;17.20;99231.00;;;;5051553;28;20234;-73
2023/10/29 17:41:53;;;;;;;0.93;0.40;;;14.00;99.90;16.50;99234.00;;;;5070504;28;20266;-83
2023/10/29 17:44:22;;;;;;;0.30;0.30;;;13.90;99.90;16.30;99255.00;;;;5071712;28;20185;-75
2023/10/29 17:47:00;;;;;;;3.30;1.53;;;13.80;99.90;16.10;99245.00;;;;5075742;28;20184;-75
2023/10/29 17:49:35;;;;;;;0.30;0.30;;;13.80;99.90;16.10;99260.00;;;;5060702;28;20191;-75
2023/10/29 17:52:12;;;;;;;0.20;0.20;;;13.70;99.90;15.80;99266.00;;;;5071553;28;20201;-76
2023/10/29 17:54:40;;;;;;;0.60;0.37;;;13.80;99.90;15.80;99264.00;;;;5073722;28;20187;-76
2023/10/29 17:57:09;;;;;;;1.37;0.60;;;13.80;99.90;15.90;99266.00;;;;5076978;28;20192;-76
2023/10/29 18:00:06;;;;;;;0.43;0.43;;;13.80;99.90;15.60;99263.00;;;;5067155;28;20186;-75
2023/10/29 18:03:17;;;;;;;0.40;0.40;;;13.70;99.90;15.20;99263.00;;;;5048373;28;20206;-75
2023/10/29 18:06:19;;;;;;;0.40;0.40;;;13.60;99.90;15.50;99239.00;;;;5071933;28;20210;-75
2023/10/29 18:09:17;;;;;;;0.63;0.33;;;13.60;99.90;15.50;99253.00;;;;5057924;28;20194;-75
2023/10/29 18:12:00;;;;;;;0.20;0.20;;;13.60;99.90;17.20;99273.00;;;;5058234;28;20248;-75
2023/10/29 18:14:29;;;;;;;0.10;0.10;;;13.80;99.90;17.60;99270.00;;;;5074995;28;20686;-75
2023/10/29 18:17:41;;;;;;;0.10;0.10;;;14.10;99.90;17.30;99285.00;;;;5055853;28;20194;-75
2023/10/29 18:20:49;;;;;;;0.40;0.40;;;13.90;99.90;17.40;99309.00;;;;5073813;28;20193;-75
2023/10/29 18:23:18;;;;;;;0.50;0.50;;;14.10;99.90;18.10;99306.00;;;;5085310;28;20204;-75
2023/10/29 18:26:15;;;;;;;0.17;0.17;;;14.20;99.90;17.60;99292.00;;;;5082419;28;20210;-75
2023/10/29 18:29:04;;;;;;;0.20;0.20;;;14.00;99.90;17.40;99307.00;;;;5046662;28;20182;-75
2023/10/29 18:31:29;;;;;;;0.20;0.20;;;14.00;99.90;17.60;99284.00;;;;5071118;28;20253;-75
2023/10/29 18:34:15;;;;;;;0.20;0.20;;;14.10;99.90;18.30;99304.00;;;;5066885;28;20201;-75
2023/10/29 18:37:01;;;;;;;0.20;0.20;;;14.20;99.90;17.10;99327.00;;;;5068790;28;20189;-76
2023/10/29 18:40:06;;;;;;;0.20;0.20;;;14.20;99.90;16.20;99308.00;;;;5069848;28;20196;-76
2023/10/29 18:43:07;;;;;;;0.20;0.20;;;13.70;99.90;16.80;99327.00;;;;5069265;28;20214;-76
2023/10/29 18:46:08;;;;;;;0.57;0.57;;;13.40;99.90;16.70;99313.00;;;;5073844;28;20182;-75
2023/10/29 18:48:59;;;;;;;0.20;0.20;;;13.40;99.90;17.00;99282.00;;;;5073524;28;20191;-76
2023/10/29 18:51:45;;;;;;;0.20;0.20;;;13.70;99.90;17.90;99347.00;;;;5074975;28;20182;-76
2023/10/29 18:54:33;;;;;;;0.23;0.23;;;13.90;99.90;18.40;99349.00;;;;5057355;28;20659;-76
2023/10/29 18:57:39;;;;;;;0.20;0.20;;;14.20;99.90;18.30;99364.00;;;;5045609;28;20286;-76
2023/10/29 19:00:31;;;;;;;0.20;0.20;;;14.40;99.90;17.60;99377.00;;;;5069807;28;20544;-74
2023/10/29 19:03:20;;;;;;;0.20;0.20;;;14.40;99.90;17.60;99361.00;;;;5065380;28;20206;-76
2023/10/29 19:06:30;;;;;;;0.20;0.20;;;14.10;99.90;17.90;99374.00;;;;5045772;28;20194;-76
2023/10/29 19:09:16;;;;;;;0.20;0.20;;;14.10;99.90;17.50;99388.00;;;;5057898;28;20184;-75
2023/10/29 19:11:52;;;;;;;0.40;0.40;;;14.10;99.90;16.70;99383.00;;;;5058924;28;20204;-76
2023/10/29 19:14:26;;;;;;;0.20;0.20;;;13.90;99.90;17.20;99336.00;;;;5077249;28;20769;-75
2023/10/29 19:17:20;;;;;;;0.20;0.20;;;13.70;99.90;17.80;99376.00;;;;5076194;28;20183;-75
2023/10/29 19:19:58;;;;;;;0.20;0.20;;;13.80;99.90;17.60;99392.00;;;;5073581;28;20234;-77
2023/10/29 19:22:29;;;;;;;0.20;0.20;;;13.90;99.90;16.70;99379.00;;;;5076369;28;20203;-77
2023/10/29 19:25:11;;;;;;;0.20;0.20;;;13.60;99.90;16.50;99341.00;;;;5062592;28;20197;-76
2023/10/29 19:28:12;;;;;;;0.10;0.10;;;13.50;99.90;17.60;99389.00;;;;5066921;28;20192;-77
2023/10/29 19:31:13;;;;;;;0.20;0.20;;;13.60;99.90;17.10;99402.00;;;;5077870;28;20215;-77
2023/10/29 19:34:14;;;;;;;0.20;0.20;;;13.60;99.90;17.20;99410.00;;;;5060167;28;20689;-77
2023/10/29 19:37:07;;;;;;;0.20;0.20;;;13.70;99.90;16.60;99414.00;;;;5076307;28;20643;-77
2023/10/29 19:40:20;;;;;;;0.20;0.20;;;13.60;99.90;16.90;99410.00;;;;5077241;28;20196;-78
2023/10/29 19:43:08;;;;;;;0.20;0.20;;;13.40;99.90;16.50;99364.00;;;;5067865;28;20228;-78
2023/10/29 19:46:10;;;;;;;0.20;0.20;;;13.40;99.90;16.40;99420.00;;;;5064287;28;20179;-78
2023/10/29 19:48:51;;;;;;;0.20;0.20;;;13.20;99.90;16.20;99361.00;;;;5073222;28;20184;-78